Ash, North Carolina
Current Conditions -  °F | °C
As of 4:53 AM on Thursday 27 Nov 2014 (Local Time) from KCRE Reporting Station
Broken Clouds Broken Clouds  
Wind Chill: 41°   Ceiling: 11000
Heat Index: 45°   Visibility: 10mi
Dew Point: 37°   Wind: 7mph
Humidity: 74%   Direction: 250°WSW
Pressure: 30.06"   Gusts: NA
Location:  34.04°N, 78.52°W
Report Text: KCRE 270953Z AUTO 25006KT 10SM BKN110 07/03 A3006 RMK AO1 SLP178 T00720028
Loading
Personal Weather Stations






























Interactive Weather Map New forecast layout! Learn more

10-Day Weather Forecast

Advertisements
Track Severe Weather on mobile